sensor_id;sensor_type;location;lat;lon;timestamp;P1;durP1;ratioP1;P2;durP2;ratioP2
19664;SDS011;9980;51.020;7.772;2023-08-20T00:01:29;12.20;;;5.00;;
19664;SDS011;9980;51.020;7.772;2023-08-20T00:03:56;8.53;;;4.57;;
19664;SDS011;9980;51.020;7.772;2023-08-20T00:06:24;6.27;;;4.20;;
19664;SDS011;9980;51.020;7.772;2023-08-20T00:08:51;6.43;;;4.30;;
19664;SDS011;9980;51.020;7.772;2023-08-20T00:11:18;9.07;;;4.53;;
19664;SDS011;9980;51.020;7.772;2023-08-20T00:13:45;4.03;;;3.73;;
19664;SDS011;9980;51.020;7.772;2023-08-20T00:16:13;6.23;;;3.70;;
19664;SDS011;9980;51.020;7.772;2023-08-20T00:18:40;7.13;;;4.50;;
19664;SDS011;9980;51.020;7.772;2023-08-20T00:21:08;6.07;;;3.70;;
19664;SDS011;9980;51.020;7.772;2023-08-20T00:23:35;5.10;;;4.20;;
19664;SDS011;9980;51.020;7.772;2023-08-20T00:26:03;4.97;;;3.90;;
19664;SDS011;9980;51.020;7.772;2023-08-20T00:28:31;3.93;;;3.63;;
19664;SDS011;9980;51.020;7.772;2023-08-20T00:31:03;5.70;;;3.17;;
19664;SDS011;9980;51.020;7.772;2023-08-20T00:33:31;4.73;;;4.33;;
19664;SDS011;9980;51.020;7.772;2023-08-20T00:35:58;12.83;;;4.90;;
19664;SDS011;9980;51.020;7.772;2023-08-20T00:38:25;5.57;;;3.70;;
19664;SDS011;9980;51.020;7.772;2023-08-20T00:40:53;4.97;;;4.10;;
19664;SDS011;9980;51.020;7.772;2023-08-20T00:43:20;5.10;;;4.60;;
19664;SDS011;9980;51.020;7.772;2023-08-20T00:45:48;5.57;;;3.93;;
19664;SDS011;9980;51.020;7.772;2023-08-20T00:48:15;5.13;;;4.10;;
19664;SDS011;9980;51.020;7.772;2023-08-20T00:50:43;4.13;;;3.60;;
19664;SDS011;9980;51.020;7.772;2023-08-20T00:53:11;6.40;;;3.30;;
19664;SDS011;9980;51.020;7.772;2023-08-20T00:55:41;3.60;;;3.30;;
19664;SDS011;9980;51.020;7.772;2023-08-20T00:58:10;4.20;;;3.73;;
19664;SDS011;9980;51.020;7.772;2023-08-20T01:00:37;4.23;;;3.83;;
19664;SDS011;9980;51.020;7.772;2023-08-20T01:03:04;3.40;;;3.10;;
19664;SDS011;9980;51.020;7.772;2023-08-20T01:05:32;4.53;;;3.57;;
19664;SDS011;9980;51.020;7.772;2023-08-20T01:11:25;3.80;;;3.27;;
19664;SDS011;9980;51.020;7.772;2023-08-20T01:13:58;6.60;;;4.23;;
19664;SDS011;9980;51.020;7.772;2023-08-20T01:16:27;6.03;;;3.60;;
19664;SDS011;9980;51.020;7.772;2023-08-20T01:18:54;7.63;;;4.60;;
19664;SDS011;9980;51.020;7.772;2023-08-20T01:21:29;5.53;;;5.03;;
19664;SDS011;9980;51.020;7.772;2023-08-20T01:30:08;4.43;;;3.80;;
19664;SDS011;9980;51.020;7.772;2023-08-20T01:32:36;3.73;;;3.40;;
19664;SDS011;9980;51.020;7.772;2023-08-20T01:35:13;6.50;;;4.27;;
19664;SDS011;9980;51.020;7.772;2023-08-20T01:37:40;4.30;;;3.77;;
19664;SDS011;9980;51.020;7.772;2023-08-20T01:40:08;7.23;;;4.70;;
19664;SDS011;9980;51.020;7.772;2023-08-20T01:42:37;5.20;;;3.57;;
19664;SDS011;9980;51.020;7.772;2023-08-20T01:45:04;5.40;;;3.67;;
19664;SDS011;9980;51.020;7.772;2023-08-20T01:47:33;3.57;;;3.27;;
19664;SDS011;9980;51.020;7.772;2023-08-20T01:50:00;5.07;;;3.40;;
19664;SDS011;9980;51.020;7.772;2023-08-20T01:52:32;7.50;;;4.50;;
19664;SDS011;9980;51.020;7.772;2023-08-20T01:54:59;5.33;;;3.43;;
19664;SDS011;9980;51.020;7.772;2023-08-20T01:57:27;6.30;;;4.40;;
19664;SDS011;9980;51.020;7.772;2023-08-20T01:59:54;4.10;;;3.60;;
19664;SDS011;9980;51.020;7.772;2023-08-20T02:02:21;4.90;;;4.40;;
19664;SDS011;9980;51.020;7.772;2023-08-20T02:04:48;4.57;;;4.03;;
19664;SDS011;9980;51.020;7.772;2023-08-20T02:07:15;4.47;;;3.57;;
19664;SDS011;9980;51.020;7.772;2023-08-20T02:09:44;4.00;;;3.57;;
19664;SDS011;9980;51.020;7.772;2023-08-20T02:12:11;8.67;;;4.77;;
19664;SDS011;9980;51.020;7.772;2023-08-20T02:14:38;5.87;;;4.80;;
19664;SDS011;9980;51.020;7.772;2023-08-20T02:17:06;4.70;;;4.30;;
19664;SDS011;9980;51.020;7.772;2023-08-20T02:19:33;5.67;;;4.67;;
19664;SDS011;9980;51.020;7.772;2023-08-20T02:22:00;6.30;;;4.90;;
19664;SDS011;9980;51.020;7.772;2023-08-20T02:24:27;5.33;;;4.83;;
19664;SDS011;9980;51.020;7.772;2023-08-20T02:26:54;7.50;;;5.03;;
19664;SDS011;9980;51.020;7.772;2023-08-20T02:29:21;4.53;;;4.13;;
19664;SDS011;9980;51.020;7.772;2023-08-20T02:31:48;5.13;;;4.20;;
19664;SDS011;9980;51.020;7.772;2023-08-20T02:34:15;6.63;;;4.60;;
19664;SDS011;9980;51.020;7.772;2023-08-20T02:36:42;6.77;;;5.30;;
19664;SDS011;9980;51.020;7.772;2023-08-20T02:39:10;9.63;;;5.20;;
19664;SDS011;9980;51.020;7.772;2023-08-20T02:41:37;8.77;;;5.13;;
19664;SDS011;9980;51.020;7.772;2023-08-20T02:44:04;6.53;;;4.77;;
19664;SDS011;9980;51.020;7.772;2023-08-20T02:46:31;13.73;;;5.97;;
19664;SDS011;9980;51.020;7.772;2023-08-20T02:48:58;10.77;;;6.03;;
19664;SDS011;9980;51.020;7.772;2023-08-20T02:51:26;13.93;;;6.23;;
19664;SDS011;9980;51.020;7.772;2023-08-20T02:53:53;9.07;;;6.20;;
19664;SDS011;9980;51.020;7.772;2023-08-20T02:56:20;9.33;;;5.77;;
19664;SDS011;9980;51.020;7.772;2023-08-20T02:58:47;10.63;;;5.33;;
19664;SDS011;9980;51.020;7.772;2023-08-20T03:01:18;11.63;;;6.07;;
19664;SDS011;9980;51.020;7.772;2023-08-20T03:03:51;10.50;;;6.63;;
19664;SDS011;9980;51.020;7.772;2023-08-20T03:06:18;7.93;;;5.17;;
19664;SDS011;9980;51.020;7.772;2023-08-20T03:08:45;8.03;;;5.07;;
19664;SDS011;9980;51.020;7.772;2023-08-20T03:11:12;5.43;;;4.50;;
19664;SDS011;9980;51.020;7.772;2023-08-20T03:13:39;7.30;;;6.13;;
19664;SDS011;9980;51.020;7.772;2023-08-20T03:16:06;4.53;;;4.13;;
19664;SDS011;9980;51.020;7.772;2023-08-20T03:18:33;8.00;;;5.20;;
19664;SDS011;9980;51.020;7.772;2023-08-20T03:21:00;8.67;;;5.03;;
19664;SDS011;9980;51.020;7.772;2023-08-20T03:23:27;6.07;;;4.50;;
19664;SDS011;9980;51.020;7.772;2023-08-20T03:25:57;5.63;;;4.97;;
19664;SDS011;9980;51.020;7.772;2023-08-20T03:28:25;6.10;;;4.33;;
19664;SDS011;9980;51.020;7.772;2023-08-20T03:30:52;8.33;;;6.03;;
19664;SDS011;9980;51.020;7.772;2023-08-20T03:33:23;6.77;;;4.50;;
19664;SDS011;9980;51.020;7.772;2023-08-20T03:35:51;9.33;;;6.50;;
19664;SDS011;9980;51.020;7.772;2023-08-20T03:38:18;7.20;;;4.87;;
19664;SDS011;9980;51.020;7.772;2023-08-20T03:40:45;5.57;;;4.20;;
19664;SDS011;9980;51.020;7.772;2023-08-20T03:43:12;7.30;;;5.70;;
19664;SDS011;9980;51.020;7.772;2023-08-20T03:45:39;5.87;;;5.17;;
19664;SDS011;9980;51.020;7.772;2023-08-20T03:48:07;4.90;;;4.50;;
19664;SDS011;9980;51.020;7.772;2023-08-20T03:50:34;6.67;;;4.80;;
19664;SDS011;9980;51.020;7.772;2023-08-20T03:53:01;6.33;;;4.87;;
19664;SDS011;9980;51.020;7.772;2023-08-20T03:55:28;7.77;;;4.63;;
19664;SDS011;9980;51.020;7.772;2023-08-20T03:57:55;6.83;;;5.23;;
19664;SDS011;9980;51.020;7.772;2023-08-20T04:00:22;6.27;;;4.83;;
19664;SDS011;9980;51.020;7.772;2023-08-20T04:02:49;4.37;;;3.97;;
19664;SDS011;9980;51.020;7.772;2023-08-20T04:05:16;6.17;;;5.57;;
19664;SDS011;9980;51.020;7.772;2023-08-20T04:07:43;6.77;;;4.77;;
19664;SDS011;9980;51.020;7.772;2023-08-20T04:10:10;5.17;;;4.67;;
19664;SDS011;9980;51.020;7.772;2023-08-20T04:12:37;4.63;;;4.23;;
19664;SDS011;9980;51.020;7.772;2023-08-20T04:15:04;4.40;;;4.00;;
19664;SDS011;9980;51.020;7.772;2023-08-20T04:17:31;4.23;;;3.70;;
19664;SDS011;9980;51.020;7.772;2023-08-20T04:19:59;6.40;;;3.90;;
19664;SDS011;9980;51.020;7.772;2023-08-20T04:22:26;6.93;;;6.10;;
19664;SDS011;9980;51.020;7.772;2023-08-20T04:24:56;8.53;;;5.67;;
19664;SDS011;9980;51.020;7.772;2023-08-20T04:27:24;6.40;;;5.50;;
19664;SDS011;9980;51.020;7.772;2023-08-20T04:29:51;8.20;;;4.73;;
19664;SDS011;9980;51.020;7.772;2023-08-20T04:32:19;5.10;;;4.60;;
19664;SDS011;9980;51.020;7.772;2023-08-20T04:34:48;5.07;;;4.67;;
19664;SDS011;9980;51.020;7.772;2023-08-20T04:37:19;9.73;;;4.30;;
19664;SDS011;9980;51.020;7.772;2023-08-20T04:39:46;7.83;;;5.50;;
19664;SDS011;9980;51.020;7.772;2023-08-20T04:42:13;7.40;;;5.67;;
19664;SDS011;9980;51.020;7.772;2023-08-20T04:44:40;9.27;;;5.87;;
19664;SDS011;9980;51.020;7.772;2023-08-20T04:47:11;9.33;;;4.80;;
19664;SDS011;9980;51.020;7.772;2023-08-20T04:49:42;8.63;;;5.80;;
19664;SDS011;9980;51.020;7.772;2023-08-20T04:52:09;7.30;;;6.00;;
19664;SDS011;9980;51.020;7.772;2023-08-20T04:54:36;8.57;;;6.03;;
19664;SDS011;9980;51.020;7.772;2023-08-20T04:57:03;6.73;;;5.93;;
19664;SDS011;9980;51.020;7.772;2023-08-20T04:59:30;5.33;;;4.47;;
19664;SDS011;9980;51.020;7.772;2023-08-20T05:02:15;7.73;;;5.10;;
19664;SDS011;9980;51.020;7.772;2023-08-20T05:04:48;6.10;;;5.50;;
19664;SDS011;9980;51.020;7.772;2023-08-20T05:07:16;8.03;;;5.50;;
19664;SDS011;9980;51.020;7.772;2023-08-20T05:09:44;6.33;;;5.50;;
19664;SDS011;9980;51.020;7.772;2023-08-20T05:12:11;9.50;;;5.80;;
19664;SDS011;9980;51.020;7.772;2023-08-20T05:14:38;5.43;;;4.93;;
19664;SDS011;9980;51.020;7.772;2023-08-20T05:17:05;4.90;;;4.50;;
19664;SDS011;9980;51.020;7.772;2023-08-20T05:19:32;7.20;;;5.93;;
19664;SDS011;9980;51.020;7.772;2023-08-20T05:21:59;6.17;;;5.57;;
19664;SDS011;9980;51.020;7.772;2023-08-20T05:24:32;9.57;;;5.93;;
19664;SDS011;9980;51.020;7.772;2023-08-20T05:27:08;8.20;;;6.27;;
19664;SDS011;9980;51.020;7.772;2023-08-20T05:29:43;7.60;;;6.90;;
19664;SDS011;9980;51.020;7.772;2023-08-20T05:32:10;7.97;;;7.17;;
19664;SDS011;9980;51.020;7.772;2023-08-20T05:34:38;8.10;;;6.40;;
19664;SDS011;9980;51.020;7.772;2023-08-20T05:37:05;9.60;;;5.70;;
19664;SDS011;9980;51.020;7.772;2023-08-20T05:39:42;5.77;;;5.20;;
19664;SDS011;9980;51.020;7.772;2023-08-20T05:42:11;8.30;;;6.50;;
19664;SDS011;9980;51.020;7.772;2023-08-20T05:44:42;7.00;;;6.30;;
19664;SDS011;9980;51.020;7.772;2023-08-20T05:47:14;6.47;;;5.90;;
19664;SDS011;9980;51.020;7.772;2023-08-20T05:49:41;8.23;;;5.93;;
19664;SDS011;9980;51.020;7.772;2023-08-20T05:52:08;6.70;;;5.77;;
19664;SDS011;9980;51.020;7.772;2023-08-20T05:54:36;6.60;;;5.93;;
19664;SDS011;9980;51.020;7.772;2023-08-20T05:57:03;6.70;;;6.07;;
19664;SDS011;9980;51.020;7.772;2023-08-20T05:59:31;8.23;;;6.90;;
19664;SDS011;9980;51.020;7.772;2023-08-20T06:01:57;11.30;;;6.77;;
19664;SDS011;9980;51.020;7.772;2023-08-20T06:04:24;8.43;;;7.33;;
19664;SDS011;9980;51.020;7.772;2023-08-20T06:06:51;7.73;;;7.03;;
19664;SDS011;9980;51.020;7.772;2023-08-20T06:09:19;6.83;;;6.17;;
19664;SDS011;9980;51.020;7.772;2023-08-20T06:11:46;7.47;;;6.77;;
19664;SDS011;9980;51.020;7.772;2023-08-20T06:14:13;7.47;;;6.53;;
19664;SDS011;9980;51.020;7.772;2023-08-20T06:16:39;7.40;;;6.70;;
19664;SDS011;9980;51.020;7.772;2023-08-20T06:19:06;6.93;;;6.17;;
19664;SDS011;9980;51.020;7.772;2023-08-20T06:21:36;7.37;;;6.67;;
19664;SDS011;9980;51.020;7.772;2023-08-20T06:24:03;6.20;;;5.60;;
19664;SDS011;9980;51.020;7.772;2023-08-20T06:26:34;5.80;;;5.00;;
19664;SDS011;9980;51.020;7.772;2023-08-20T06:29:01;5.83;;;5.37;;
19664;SDS011;9980;51.020;7.772;2023-08-20T06:31:28;6.53;;;5.93;;
19664;SDS011;9980;51.020;7.772;2023-08-20T06:33:55;5.70;;;5.20;;
19664;SDS011;9980;51.020;7.772;2023-08-20T06:36:22;5.97;;;5.47;;
19664;SDS011;9980;51.020;7.772;2023-08-20T06:38:49;5.80;;;5.20;;
19664;SDS011;9980;51.020;7.772;2023-08-20T06:41:17;6.20;;;5.70;;
19664;SDS011;9980;51.020;7.772;2023-08-20T06:43:44;5.53;;;5.03;;
19664;SDS011;9980;51.020;7.772;2023-08-20T06:46:13;5.37;;;4.97;;
19664;SDS011;9980;51.020;7.772;2023-08-20T06:48:40;5.27;;;4.87;;
19664;SDS011;9980;51.020;7.772;2023-08-20T06:51:13;5.10;;;4.60;;
19664;SDS011;9980;51.020;7.772;2023-08-20T06:53:46;5.47;;;4.90;;
19664;SDS011;9980;51.020;7.772;2023-08-20T06:56:13;6.70;;;5.40;;
19664;SDS011;9980;51.020;7.772;2023-08-20T06:58:41;6.43;;;5.83;;
19664;SDS011;9980;51.020;7.772;2023-08-20T07:01:08;6.27;;;5.67;;
19664;SDS011;9980;51.020;7.772;2023-08-20T07:03:40;5.60;;;5.10;;
19664;SDS011;9980;51.020;7.772;2023-08-20T07:06:10;6.77;;;5.70;;
19664;SDS011;9980;51.020;7.772;2023-08-20T07:08:37;6.13;;;5.50;;
19664;SDS011;9980;51.020;7.772;2023-08-20T07:11:05;5.90;;;5.32;;
19664;SDS011;9980;51.020;7.772;2023-08-20T07:13:33;4.95;;;4.55;;
19664;SDS011;9980;51.020;7.772;2023-08-20T07:16:00;6.27;;;5.67;;
19664;SDS011;9980;51.020;7.772;2023-08-20T07:18:27;6.28;;;5.55;;
19664;SDS011;9980;51.020;7.772;2023-08-20T07:20:54;5.60;;;5.05;;
19664;SDS011;9980;51.020;7.772;2023-08-20T07:23:22;5.85;;;5.22;;
19664;SDS011;9980;51.020;7.772;2023-08-20T07:25:49;7.10;;;5.82;;
19664;SDS011;9980;51.020;7.772;2023-08-20T07:28:18;6.18;;;5.68;;
19664;SDS011;9980;51.020;7.772;2023-08-20T07:31:14;6.30;;;5.70;;
19664;SDS011;9980;51.020;7.772;2023-08-20T07:33:45;6.30;;;5.80;;
19664;SDS011;9980;51.020;7.772;2023-08-20T07:36:16;6.03;;;5.53;;
19664;SDS011;9980;51.020;7.772;2023-08-20T07:38:44;5.90;;;5.45;;
19664;SDS011;9980;51.020;7.772;2023-08-20T07:41:11;7.38;;;5.45;;
19664;SDS011;9980;51.020;7.772;2023-08-20T07:43:41;5.95;;;5.45;;
19664;SDS011;9980;51.020;7.772;2023-08-20T07:46:08;6.00;;;5.35;;
19664;SDS011;9980;51.020;7.772;2023-08-20T07:48:36;5.03;;;4.63;;
19664;SDS011;9980;51.020;7.772;2023-08-20T07:51:03;6.10;;;5.50;;
19664;SDS011;9980;51.020;7.772;2023-08-20T07:53:30;6.10;;;5.47;;
19664;SDS011;9980;51.020;7.772;2023-08-20T07:55:59;5.57;;;4.93;;
19664;SDS011;9980;51.020;7.772;2023-08-20T07:58:27;7.55;;;5.45;;
19664;SDS011;9980;51.020;7.772;2023-08-20T08:00:56;5.88;;;5.38;;
19664;SDS011;9980;51.020;7.772;2023-08-20T08:03:25;9.00;;;5.20;;
19664;SDS011;9980;51.020;7.772;2023-08-20T08:05:55;5.97;;;5.47;;
19664;SDS011;9980;51.020;7.772;2023-08-20T08:08:23;5.70;;;5.20;;
19664;SDS011;9980;51.020;7.772;2023-08-20T08:10:50;5.95;;;4.80;;
19664;SDS011;9980;51.020;7.772;2023-08-20T08:13:19;5.90;;;4.90;;
19664;SDS011;9980;51.020;7.772;2023-08-20T08:15:47;4.43;;;4.05;;
19664;SDS011;9980;51.020;7.772;2023-08-20T08:18:15;4.18;;;3.88;;
19664;SDS011;9980;51.020;7.772;2023-08-20T08:20:42;4.70;;;4.30;;
19664;SDS011;9980;51.020;7.772;2023-08-20T08:23:09;4.25;;;3.85;;
19664;SDS011;9980;51.020;7.772;2023-08-20T08:25:36;4.10;;;3.70;;
19664;SDS011;9980;51.020;7.772;2023-08-20T08:28:06;3.80;;;3.50;;
19664;SDS011;9980;51.020;7.772;2023-08-20T08:30:33;4.30;;;3.97;;
19664;SDS011;9980;51.020;7.772;2023-08-20T08:33:00;3.80;;;3.50;;
19664;SDS011;9980;51.020;7.772;2023-08-20T08:35:27;3.70;;;3.40;;
19664;SDS011;9980;51.020;7.772;2023-08-20T08:37:55;5.20;;;3.53;;
19664;SDS011;9980;51.020;7.772;2023-08-20T08:40:25;3.90;;;3.33;;
19664;SDS011;9980;51.020;7.772;2023-08-20T08:42:56;3.20;;;2.85;;
19664;SDS011;9980;51.020;7.772;2023-08-20T08:45:24;3.72;;;3.42;;
19664;SDS011;9980;51.020;7.772;2023-08-20T08:47:53;5.43;;;3.30;;
19664;SDS011;9980;51.020;7.772;2023-08-20T08:50:21;3.53;;;3.22;;
19664;SDS011;9980;51.020;7.772;2023-08-20T08:52:51;4.75;;;3.80;;
19664;SDS011;9980;51.020;7.772;2023-08-20T08:55:20;3.70;;;3.25;;
19664;SDS011;9980;51.020;7.772;2023-08-20T08:57:47;4.28;;;3.65;;
19664;SDS011;9980;51.020;7.772;2023-08-20T09:00:14;4.10;;;3.65;;
19664;SDS011;9980;51.020;7.772;2023-08-20T09:02:41;3.45;;;2.83;;
19664;SDS011;9980;51.020;7.772;2023-08-20T09:05:09;3.63;;;3.33;;
19664;SDS011;9980;51.020;7.772;2023-08-20T09:07:37;4.70;;;3.40;;
19664;SDS011;9980;51.020;7.772;2023-08-20T09:10:11;3.47;;;3.17;;
19664;SDS011;9980;51.020;7.772;2023-08-20T09:12:38;4.28;;;3.15;;
19664;SDS011;9980;51.020;7.772;2023-08-20T09:15:09;4.35;;;3.60;;
19664;SDS011;9980;51.020;7.772;2023-08-20T09:17:39;4.35;;;3.78;;
19664;SDS011;9980;51.020;7.772;2023-08-20T09:20:08;4.05;;;3.65;;
19664;SDS011;9980;51.020;7.772;2023-08-20T09:22:35;3.90;;;3.60;;
19664;SDS011;9980;51.020;7.772;2023-08-20T09:25:03;4.57;;;4.18;;
19664;SDS011;9980;51.020;7.772;2023-08-20T09:27:31;4.85;;;4.10;;
19664;SDS011;9980;51.020;7.772;2023-08-20T09:30:08;4.65;;;4.25;;
19664;SDS011;9980;51.020;7.772;2023-08-20T09:32:43;4.65;;;4.10;;
19664;SDS011;9980;51.020;7.772;2023-08-20T09:35:17;4.55;;;3.80;;
19664;SDS011;9980;51.020;7.772;2023-08-20T09:37:45;4.97;;;4.03;;
19664;SDS011;9980;51.020;7.772;2023-08-20T09:40:11;4.80;;;4.40;;
19664;SDS011;9980;51.020;7.772;2023-08-20T09:42:38;4.75;;;4.35;;
19664;SDS011;9980;51.020;7.772;2023-08-20T09:45:06;7.35;;;4.60;;
19664;SDS011;9980;51.020;7.772;2023-08-20T09:47:35;5.75;;;5.20;;
19664;SDS011;9980;51.020;7.772;2023-08-20T09:50:08;5.40;;;4.72;;
19664;SDS011;9980;51.020;7.772;2023-08-20T09:52:39;5.10;;;4.60;;
19664;SDS011;9980;51.020;7.772;2023-08-20T09:55:13;5.30;;;4.80;;
19664;SDS011;9980;51.020;7.772;2023-08-20T09:57:46;7.38;;;5.03;;
19664;SDS011;9980;51.020;7.772;2023-08-20T10:00:14;6.45;;;5.35;;
19664;SDS011;9980;51.020;7.772;2023-08-20T10:02:42;4.50;;;4.10;;
19664;SDS011;9980;51.020;7.772;2023-08-20T10:05:10;5.85;;;4.70;;
19664;SDS011;9980;51.020;7.772;2023-08-20T10:07:39;4.82;;;4.43;;
19664;SDS011;9980;51.020;7.772;2023-08-20T10:10:07;5.05;;;4.55;;
19664;SDS011;9980;51.020;7.772;2023-08-20T10:12:38;4.70;;;4.30;;
19664;SDS011;9980;51.020;7.772;2023-08-20T10:15:10;4.70;;;4.30;;
19664;SDS011;9980;51.020;7.772;2023-08-20T10:17:40;5.18;;;4.57;;
19664;SDS011;9980;51.020;7.772;2023-08-20T10:20:10;6.75;;;4.53;;
19664;SDS011;9980;51.020;7.772;2023-08-20T10:22:42;4.45;;;4.00;;
19664;SDS011;9980;51.020;7.772;2023-08-20T10:25:12;4.40;;;4.00;;
19664;SDS011;9980;51.020;7.772;2023-08-20T10:27:49;6.93;;;4.53;;
19664;SDS011;9980;51.020;7.772;2023-08-20T10:30:18;4.82;;;3.75;;
19664;SDS011;9980;51.020;7.772;2023-08-20T10:32:52;6.45;;;3.97;;
19664;SDS011;9980;51.020;7.772;2023-08-20T10:35:25;9.43;;;4.20;;
19664;SDS011;9980;51.020;7.772;2023-08-20T10:38:04;6.30;;;4.10;;
19664;SDS011;9980;51.020;7.772;2023-08-20T10:40:55;5.00;;;3.53;;
19664;SDS011;9980;51.020;7.772;2023-08-20T10:49:00;6.40;;;3.85;;
19664;SDS011;9980;51.020;7.772;2023-08-20T10:51:33;4.38;;;4.07;;
19664;SDS011;9980;51.020;7.772;2023-08-20T10:56:47;4.03;;;3.72;;
19664;SDS011;9980;51.020;7.772;2023-08-20T10:59:21;5.85;;;3.60;;
19664;SDS011;9980;51.020;7.772;2023-08-20T11:01:53;4.10;;;3.70;;
19664;SDS011;9980;51.020;7.772;2023-08-20T11:04:27;4.78;;;3.60;;
19664;SDS011;9980;51.020;7.772;2023-08-20T11:07:01;3.90;;;3.50;;
19664;SDS011;9980;51.020;7.772;2023-08-20T11:09:28;4.40;;;3.25;;
19664;SDS011;9980;51.020;7.772;2023-08-20T11:11:59;4.30;;;3.50;;
19664;SDS011;9980;51.020;7.772;2023-08-20T11:14:26;3.80;;;3.45;;
19664;SDS011;9980;51.020;7.772;2023-08-20T11:16:53;6.95;;;3.80;;
19664;SDS011;9980;51.020;7.772;2023-08-20T11:19:21;3.53;;;2.90;;
19664;SDS011;9980;51.020;7.772;2023-08-20T11:21:49;3.83;;;3.47;;
19664;SDS011;9980;51.020;7.772;2023-08-20T11:24:18;4.72;;;4.03;;
19664;SDS011;9980;51.020;7.772;2023-08-20T11:26:46;3.47;;;3.17;;
19664;SDS011;9980;51.020;7.772;2023-08-20T11:29:14;3.60;;;3.30;;
19664;SDS011;9980;51.020;7.772;2023-08-20T11:31:49;3.65;;;3.22;;
19664;SDS011;9980;51.020;7.772;2023-08-20T11:34:20;3.30;;;3.10;;
19664;SDS011;9980;51.020;7.772;2023-08-20T11:36:54;3.65;;;3.20;;
19664;SDS011;9980;51.020;7.772;2023-08-20T11:39:22;3.80;;;3.50;;
19664;SDS011;9980;51.020;7.772;2023-08-20T11:41:50;3.63;;;3.30;;
19664;SDS011;9980;51.020;7.772;2023-08-20T11:44:21;3.13;;;2.90;;
19664;SDS011;9980;51.020;7.772;2023-08-20T11:46:49;3.63;;;3.13;;
19664;SDS011;9980;51.020;7.772;2023-08-20T11:49:16;3.90;;;3.60;;
19664;SDS011;9980;51.020;7.772;2023-08-20T11:51:44;4.78;;;3.50;;
19664;SDS011;9980;51.020;7.772;2023-08-20T11:54:15;4.63;;;3.17;;
19664;SDS011;9980;51.020;7.772;2023-08-20T11:56:49;3.65;;;3.35;;
19664;SDS011;9980;51.020;7.772;2023-08-20T11:59:18;3.40;;;3.10;;
19664;SDS011;9980;51.020;7.772;2023-08-20T12:01:50;3.85;;;3.30;;
19664;SDS011;9980;51.020;7.772;2023-08-20T12:04:23;3.53;;;3.10;;
19664;SDS011;9980;51.020;7.772;2023-08-20T12:07:08;4.28;;;3.88;;
19664;SDS011;9980;51.020;7.772;2023-08-20T12:09:42;3.72;;;3.42;;
19664;SDS011;9980;51.020;7.772;2023-08-20T12:12:11;5.07;;;3.67;;
19664;SDS011;9980;51.020;7.772;2023-08-20T12:14:38;3.80;;;3.50;;
19664;SDS011;9980;51.020;7.772;2023-08-20T12:17:06;4.22;;;3.83;;
19664;SDS011;9980;51.020;7.772;2023-08-20T12:19:33;4.05;;;3.70;;
19664;SDS011;9980;51.020;7.772;2023-08-20T12:22:00;3.88;;;3.30;;
19664;SDS011;9980;51.020;7.772;2023-08-20T12:24:27;4.13;;;3.72;;
19664;SDS011;9980;51.020;7.772;2023-08-20T12:26:54;3.83;;;3.53;;
19664;SDS011;9980;51.020;7.772;2023-08-20T12:29:21;4.30;;;3.80;;
19664;SDS011;9980;51.020;7.772;2023-08-20T12:31:49;4.70;;;4.30;;
19664;SDS011;9980;51.020;7.772;2023-08-20T12:34:16;4.68;;;4.28;;
19664;SDS011;9980;51.020;7.772;2023-08-20T12:36:43;4.50;;;4.10;;
19664;SDS011;9980;51.020;7.772;2023-08-20T12:39:10;4.28;;;3.88;;
19664;SDS011;9980;51.020;7.772;2023-08-20T12:41:37;4.03;;;3.72;;
19664;SDS011;9980;51.020;7.772;2023-08-20T12:44:04;4.47;;;4.07;;
19664;SDS011;9980;51.020;7.772;2023-08-20T12:46:32;4.63;;;4.20;;
19664;SDS011;9980;51.020;7.772;2023-08-20T12:48:59;4.18;;;3.88;;
19664;SDS011;9980;51.020;7.772;2023-08-20T12:51:26;4.07;;;3.72;;
19664;SDS011;9980;51.020;7.772;2023-08-20T12:53:53;4.93;;;4.00;;
19664;SDS011;9980;51.020;7.772;2023-08-20T12:56:21;4.15;;;3.38;;
19664;SDS011;9980;51.020;7.772;2023-08-20T12:58:53;5.10;;;3.67;;
19664;SDS011;9980;51.020;7.772;2023-08-20T13:01:20;3.60;;;3.30;;
19664;SDS011;9980;51.020;7.772;2023-08-20T13:03:47;4.72;;;3.50;;
19664;SDS011;9980;51.020;7.772;2023-08-20T13:06:15;4.68;;;4.10;;
19664;SDS011;9980;51.020;7.772;2023-08-20T13:08:56;3.80;;;3.47;;
19664;SDS011;9980;51.020;7.772;2023-08-20T13:11:24;4.15;;;3.78;;
19664;SDS011;9980;51.020;7.772;2023-08-20T13:13:54;3.55;;;3.25;;
19664;SDS011;9980;51.020;7.772;2023-08-20T13:16:21;3.90;;;3.55;;
19664;SDS011;9980;51.020;7.772;2023-08-20T13:18:48;5.15;;;3.78;;
19664;SDS011;9980;51.020;7.772;2023-08-20T13:21:16;4.95;;;3.47;;
19664;SDS011;9980;51.020;7.772;2023-08-20T13:23:42;3.40;;;3.10;;
19664;SDS011;9980;51.020;7.772;2023-08-20T13:26:10;4.03;;;3.72;;
19664;SDS011;9980;51.020;7.772;2023-08-20T13:28:37;3.95;;;3.55;;
19664;SDS011;9980;51.020;7.772;2023-08-20T13:31:05;4.13;;;3.83;;
19664;SDS011;9980;51.020;7.772;2023-08-20T13:33:32;4.50;;;4.10;;
19664;SDS011;9980;51.020;7.772;2023-08-20T13:35:59;4.60;;;4.20;;
19664;SDS011;9980;51.020;7.772;2023-08-20T13:38:26;3.88;;;3.47;;
19664;SDS011;9980;51.020;7.772;2023-08-20T13:40:53;5.57;;;3.78;;
19664;SDS011;9980;51.020;7.772;2023-08-20T13:43:22;3.60;;;3.30;;
19664;SDS011;9980;51.020;7.772;2023-08-20T13:45:49;4.22;;;3.75;;
19664;SDS011;9980;51.020;7.772;2023-08-20T13:48:16;4.20;;;3.80;;
19664;SDS011;9980;51.020;7.772;2023-08-20T13:50:46;4.15;;;3.78;;
19664;SDS011;9980;51.020;7.772;2023-08-20T13:53:13;4.15;;;3.83;;
19664;SDS011;9980;51.020;7.772;2023-08-20T13:55:40;4.15;;;3.80;;
19664;SDS011;9980;51.020;7.772;2023-08-20T13:58:07;4.28;;;3.90;;
19664;SDS011;9980;51.020;7.772;2023-08-20T14:00:36;4.22;;;3.92;;
19664;SDS011;9980;51.020;7.772;2023-08-20T14:03:03;3.92;;;3.53;;
19664;SDS011;9980;51.020;7.772;2023-08-20T14:05:30;4.25;;;3.25;;
19664;SDS011;9980;51.020;7.772;2023-08-20T14:07:57;4.78;;;3.95;;
19664;SDS011;9980;51.020;7.772;2023-08-20T14:10:24;3.72;;;3.42;;
19664;SDS011;9980;51.020;7.772;2023-08-20T14:12:51;3.70;;;3.40;;
19664;SDS011;9980;51.020;7.772;2023-08-20T14:15:19;4.70;;;3.58;;
19664;SDS011;9980;51.020;7.772;2023-08-20T14:17:46;4.97;;;3.13;;
19664;SDS011;9980;51.020;7.772;2023-08-20T14:20:14;3.67;;;3.38;;
19664;SDS011;9980;51.020;7.772;2023-08-20T14:22:41;3.28;;;2.97;;
19664;SDS011;9980;51.020;7.772;2023-08-20T14:25:09;3.13;;;2.83;;
19664;SDS011;9980;51.020;7.772;2023-08-20T14:27:36;3.40;;;2.95;;
19664;SDS011;9980;51.020;7.772;2023-08-20T14:30:03;3.60;;;3.30;;
19664;SDS011;9980;51.020;7.772;2023-08-20T14:32:32;6.50;;;3.72;;
19664;SDS011;9980;51.020;7.772;2023-08-20T14:35:01;5.45;;;4.10;;
19664;SDS011;9980;51.020;7.772;2023-08-20T14:37:31;3.95;;;3.65;;
19664;SDS011;9980;51.020;7.772;2023-08-20T14:39:58;3.90;;;3.50;;
19664;SDS011;9980;51.020;7.772;2023-08-20T14:42:25;4.25;;;3.65;;
19664;SDS011;9980;51.020;7.772;2023-08-20T14:44:52;4.35;;;3.95;;
19664;SDS011;9980;51.020;7.772;2023-08-20T14:47:20;6.82;;;3.70;;
19664;SDS011;9980;51.020;7.772;2023-08-20T14:49:47;4.25;;;3.85;;
19664;SDS011;9980;51.020;7.772;2023-08-20T14:52:14;7.65;;;3.90;;
19664;SDS011;9980;51.020;7.772;2023-08-20T14:54:46;4.15;;;3.75;;
19664;SDS011;9980;51.020;7.772;2023-08-20T14:57:13;3.42;;;3.20;;
19664;SDS011;9980;51.020;7.772;2023-08-20T14:59:43;3.95;;;3.65;;
19664;SDS011;9980;51.020;7.772;2023-08-20T15:02:10;4.03;;;3.72;;
19664;SDS011;9980;51.020;7.772;2023-08-20T15:04:37;4.05;;;3.65;;
19664;SDS011;9980;51.020;7.772;2023-08-20T15:07:04;4.15;;;3.80;;
19664;SDS011;9980;51.020;7.772;2023-08-20T15:09:31;3.90;;;3.60;;
19664;SDS011;9980;51.020;7.772;2023-08-20T15:12:10;3.88;;;3.53;;
19664;SDS011;9980;51.020;7.772;2023-08-20T15:14:45;3.70;;;3.35;;
19664;SDS011;9980;51.020;7.772;2023-08-20T15:17:13;3.88;;;3.53;;
19664;SDS011;9980;51.020;7.772;2023-08-20T15:19:40;4.07;;;3.67;;
19664;SDS011;9980;51.020;7.772;2023-08-20T15:22:07;3.85;;;3.55;;
19664;SDS011;9980;51.020;7.772;2023-08-20T15:24:36;5.85;;;4.05;;
19664;SDS011;9980;51.020;7.772;2023-08-20T15:27:03;3.78;;;3.38;;